Time;durP1;ratioP1;P1;durP2;ratioP2;P2;SDS_P1;SDS_P2;PMS_P1;PMS_P2;Temp;Humidity;BMP_temperature;BMP_pressure;BME280_temperature;BME280_humidity;BME280_pressure;Samples;Min_cycle;Max_cycle;Signal;HPM_P1;HPM_P2
2022/07/31 00:00:57;;;;;;;5.00;4.65;;;;;;;30.57;55.36;100469.94;4948951;28;65325;-30
2022/07/31 00:03:31;;;;;;;4.63;4.32;;;;;;;30.60;55.80;100469.47;4953092;28;43556;-30
2022/07/31 00:06:03;;;;;;;5.45;4.07;;;;;;;30.38;56.54;100438.53;4961184;28;65502;-29
2022/07/31 00:08:37;;;;;;;4.60;4.30;;;;;;;30.64;56.49;100476.06;4956214;28;70114;-29
2022/07/31 00:11:10;;;;;;;5.17;4.77;;;;;;;30.70;57.47;100468.91;5017077;28;65806;-27
2022/07/31 00:13:42;;;;;;;5.90;5.50;;;;;;;30.71;57.71;100471.41;4953521;28;70534;-27
2022/07/31 00:16:27;;;;;;;6.35;4.80;;;;;;;30.66;57.67;100467.75;4952570;28;65137;-27
2022/07/31 00:18:58;;;;;;;4.90;4.28;;;;;;;30.84;58.01;100485.84;4952390;28;69327;-26
2022/07/31 00:21:30;;;;;;;5.18;4.88;;;;;;;30.84;58.45;100480.44;4949323;28;65007;-28
2022/07/31 00:24:01;;;;;;;6.60;4.90;;;;;;;30.89;58.61;100484.09;4949620;28;69860;-29
2022/07/31 00:26:32;;;;;;;6.67;4.23;;;;;;;30.83;59.58;100484.19;4954491;28;66176;-29
2022/07/31 00:29:04;;;;;;;23.23;5.05;;;;;;;30.97;59.69;100499.22;4956613;28;70472;-28
2022/07/31 00:31:35;;;;;;;4.95;4.65;;;;;;;30.93;60.03;100481.78;5003787;28;64761;-27
2022/07/31 00:34:07;;;;;;;5.43;4.72;;;;;;;30.96;59.82;100483.19;4951058;28;69325;-28
2022/07/31 00:36:39;;;;;;;5.55;5.15;;;;;;;31.01;60.19;100492.28;5019506;28;65828;-30
2022/07/31 00:39:10;;;;;;;13.05;5.75;;;;;;;31.02;60.01;100483.09;4952473;28;70563;-28
2022/07/31 00:41:44;;;;;;;6.40;5.80;;;;;;;30.64;63.42;100427.34;5016599;28;66000;-27
2022/07/31 00:44:16;;;;;;;7.75;7.00;;;;;;;31.08;64.84;100486.75;4944754;28;69425;-28
2022/07/31 00:46:48;;;;;;;11.35;6.90;;;;;;;31.14;66.05;100502.09;4961223;28;66240;-29
2022/07/31 00:49:20;;;;;;;11.70;6.35;;;;;;;31.20;66.81;100505.75;4956307;28;69294;-28
2022/07/31 00:51:50;;;;;;;;;;;;;;;30.96;69.19;100504.88;4955861;28;66436;-29
2022/07/31 00:54:22;;;;;;;7.97;7.43;;;;;;;31.24;67.92;100512.38;5018634;28;70642;-27
2022/07/31 00:56:53;;;;;;;14.75;6.75;;;;;;;31.29;69.43;100509.81;5027557;28;66161;-29
2022/07/31 00:59:26;;;;;;;6.50;6.00;;;;;;;31.36;65.45;100502.41;5020322;28;70040;-28
2022/07/31 01:01:58;;;;;;;6.18;5.78;;;;;;;31.48;64.37;100503.28;5010745;28;65968;-29
2022/07/31 01:04:29;;;;;;;;;;;;;;;31.22;66.52;100506.34;5014740;28;69941;-27
2022/07/31 01:07:01;;;;;;;12.05;5.90;;;;;;;31.32;64.31;100461.38;5022171;28;66529;-28
2022/07/31 01:09:33;;;;;;;6.70;6.10;;;;;;;31.68;64.62;100502.09;4958025;28;70104;-29
2022/07/31 01:12:18;;;;;;;6.45;5.85;;;;;;;31.61;65.29;100503.03;4955722;28;66448;-27
2022/07/31 01:14:56;;;;;;;7.78;7.20;;;;;;;31.23;68.98;100426.72;4958667;28;70122;-28
2022/07/31 01:17:30;;;;;;;10.75;9.35;;;;;;;31.36;70.35;100445.50;5019251;28;65514;-28
2022/07/31 01:20:04;;;;;;;9.63;8.70;;;;;;;31.64;70.44;100496.31;5034764;28;70295;-29
2022/07/31 01:23:08;;;;;;;9.98;8.85;;;;;;;31.72;71.48;100514.94;5015824;28;66320;-28
2022/07/31 01:26:00;;;;;;;15.60;9.25;;;;;;;31.67;71.21;100511.28;4989895;28;70262;-29
2022/07/31 01:29:16;;;;;;;16.42;9.57;;;;;;;31.69;71.36;100520.03;5021944;28;66480;-29
2022/07/31 01:31:56;;;;;;;17.20;9.20;;;;;;;31.51;71.37;100486.53;5000140;28;70081;-27
2022/07/31 01:34:51;;;;;;;14.70;10.60;;;;;;;31.27;71.76;100452.28;5036025;28;66202;-28
2022/07/31 01:37:40;;;;;;;21.67;11.23;;;;;;;31.24;71.78;100450.06;4957539;28;70184;-27
2022/07/31 01:40:13;;;;;;;11.55;10.35;;;;;;;31.78;71.97;100526.75;4960049;28;65722;-29
2022/07/31 01:42:55;;;;;;;11.85;10.05;;;;;;;31.48;72.00;100476.16;5019291;28;69787;-28
2022/07/31 01:45:50;;;;;;;12.68;10.23;;;;;;;31.35;72.38;100466.31;4951939;28;66364;-29
2022/07/31 01:48:22;;;;;;;14.38;9.50;;;;;;;31.87;71.71;100538.88;4953721;28;70094;-29
2022/07/31 01:50:56;;;;;;;10.98;9.73;;;;;;;31.86;71.75;100541.84;5003256;28;66460;-29
2022/07/31 01:53:33;;;;;;;10.05;9.20;;;;;;;31.93;70.85;100542.56;4948111;28;70705;-29
2022/07/31 01:56:06;;;;;;;14.60;10.02;;;;;;;31.94;71.28;100539.63;5018864;28;66328;-28
2022/07/31 01:58:42;;;;;;;12.57;8.68;;;;;;;31.27;71.00;100430.63;5000132;28;69973;-29
2022/07/31 02:01:38;;;;;;;8.57;7.88;;;;;;;32.10;69.75;100557.09;5007594;28;65937;-29
2022/07/31 02:04:12;;;;;;;9.05;7.18;;;;;;;31.99;69.15;100518.06;5017830;28;69870;-30
2022/07/31 02:06:48;;;;;;;7.47;6.80;;;;;;;32.25;68.95;100546.59;4964737;28;65647;-28
2022/07/31 02:09:22;;;;;;;9.02;6.57;;;;;;;32.33;68.24;100550.00;5010408;28;69537;-30
2022/07/31 02:11:54;;;;;;;7.72;7.07;;;;;;;32.38;67.85;100545.50;5021007;28;65862;-29
2022/07/31 02:14:28;;;;;;;7.85;7.25;;;;;;;32.23;67.66;100504.44;4949982;28;69346;-28
2022/07/31 02:17:00;;;;;;;7.03;6.47;;;;;;;32.49;67.47;100539.25;5017992;28;66223;-30
2022/07/31 02:20:11;;;;;;;11.20;7.30;;;;;;;32.50;67.11;100526.50;4967268;28;69526;-28
2022/07/31 02:22:42;;;;;;;7.55;6.88;;;;;;;32.60;66.91;100531.34;5009717;28;65845;-30
2022/07/31 02:25:14;;;;;;;6.70;6.30;;;;;;;32.62;66.62;100540.88;5014464;28;69571;-29
2022/07/31 02:27:47;;;;;;;6.82;6.30;;;;;;;32.59;66.14;100518.81;5033544;28;65980;-30
2022/07/31 02:30:31;;;;;;;8.05;7.25;;;;;;;32.32;65.94;100462.31;5013855;28;69766;-29
2022/07/31 02:33:24;;;;;;;6.68;6.15;;;;;;;32.41;65.75;100460.88;4969113;28;66326;-28
2022/07/31 02:35:57;;;;;;;6.93;6.32;;;;;;;32.77;65.32;100515.94;5022638;28;69407;-30
2022/07/31 02:38:33;;;;;;;6.18;5.72;;;;;;;32.82;65.22;100518.75;5022469;28;66160;-28
2022/07/31 02:41:06;;;;;;;6.80;5.95;;;;;;;32.72;65.01;100503.06;5014961;28;70303;-27
2022/07/31 02:43:38;;;;;;;5.95;5.55;;;;;;;32.91;64.92;100525.44;4952152;28;66405;-27
2022/07/31 02:46:30;;;;;;;6.47;5.97;;;;;;;32.93;64.57;100517.88;4952482;28;70455;-29
2022/07/31 02:49:02;;;;;;;6.00;5.60;;;;;;;32.96;64.32;100510.28;5025470;28;66684;-28
2022/07/31 02:51:35;;;;;;;6.43;5.93;;;;;;;33.01;64.21;100515.84;5010258;28;69581;-29
2022/07/31 02:54:12;;;;;;;7.53;5.22;;;;;;;33.00;64.21;100504.16;4955841;28;65820;-29
2022/07/31 02:56:45;;;;;;;5.50;5.10;;;;;;;32.68;63.90;100458.44;5041004;28;70115;-28
2022/07/31 02:59:16;;;;;;;5.70;5.30;;;;;;;33.07;63.99;100514.84;5004272;28;65957;-32
2022/07/31 03:02:06;;;;;;;5.63;5.20;;;;;;;33.08;63.67;100509.19;5021265;28;69881;-29
2022/07/31 03:04:43;;;;;;;5.47;5.18;;;;;;;33.12;63.44;100513.06;5034383;28;66530;-28
2022/07/31 03:07:16;;;;;;;5.95;5.35;;;;;;;33.14;63.42;100520.97;5021362;28;70008;-29
2022/07/31 03:09:48;;;;;;;6.07;5.32;;;;;;;33.18;63.31;100516.69;5034802;28;65413;-29
2022/07/31 03:12:50;;;;;;;5.82;5.40;;;;;;;32.70;63.35;100441.91;5034012;28;70155;-28
2022/07/31 03:15:25;;;;;;;5.45;5.03;;;;;;;33.23;63.06;100515.97;5034728;28;66075;-29
2022/07/31 03:17:57;;;;;;;5.32;4.95;;;;;;;33.12;62.62;100491.31;5037837;28;70494;-29
2022/07/31 03:20:41;;;;;;;5.25;4.95;;;;;;;33.25;62.95;100511.13;5038170;28;67008;-30
2022/07/31 03:23:13;;;;;;;5.30;4.82;;;;;;;33.20;63.04;100500.16;5038587;28;69721;-30
2022/07/31 03:25:54;;;;;;;5.30;4.90;;;;;;;33.25;63.03;100517.38;5038331;28;66338;-30
2022/07/31 03:28:26;;;;;;;4.93;4.53;;;;;;;33.27;62.49;100519.88;4952960;28;70355;-29
2022/07/31 03:30:58;;;;;;;4.70;4.35;;;;;;;33.26;62.66;100519.00;5015366;28;65327;-30
2022/07/31 03:33:32;;;;;;;5.55;5.15;;;;;;;33.31;62.38;100518.28;5020123;28;70687;-29
2022/07/31 03:36:03;;;;;;;5.15;4.75;;;;;;;33.30;62.40;100514.75;4951586;28;66123;-28
2022/07/31 03:38:35;;;;;;;4.93;4.55;;;;;;;33.29;62.74;100517.69;5021402;28;69255;-29
2022/07/31 03:41:33;;;;;;;5.18;4.78;;;;;;;32.99;62.16;100464.44;4951155;28;66817;-29
2022/07/31 03:44:05;;;;;;;5.93;4.70;;;;;;;33.36;62.21;100518.38;4950732;28;70246;-28
2022/07/31 03:46:37;;;;;;;4.88;4.45;;;;;;;33.36;62.00;100516.47;5014003;28;65536;-29
2022/07/31 03:49:09;;;;;;;4.97;4.68;;;;;;;33.06;62.08;100458.88;5019512;28;70128;-29
2022/07/31 03:51:41;;;;;;;4.53;4.22;;;;;;;33.37;62.03;100515.41;5017637;28;65580;-29
2022/07/31 03:54:13;;;;;;;4.60;4.30;;;;;;;33.36;61.87;100508.31;5006140;28;68956;-29
2022/07/31 03:56:48;;;;;;;6.20;4.40;;;;;;;33.38;61.80;100500.75;4950456;28;65943;-29
2022/07/31 03:59:21;;;;;;;5.10;4.75;;;;;;;33.40;61.98;100491.50;5023899;28;70438;-29
2022/07/31 04:01:52;;;;;;;4.88;4.53;;;;;;;33.42;61.76;100500.25;4951642;28;66526;-30
2022/07/31 04:04:38;;;;;;;4.57;4.28;;;;;;;33.44;61.78;100492.69;5019498;28;69398;-31
2022/07/31 04:07:10;;;;;;;6.60;4.40;;;;;;;33.43;61.54;100480.13;5019857;28;66029;-30
2022/07/31 04:09:42;;;;;;;4.60;4.10;;;;;;;33.34;61.43;100461.53;5017484;28;69333;-29
2022/07/31 04:12:16;;;;;;;4.35;4.05;;;;;;;33.49;61.39;100480.00;5019290;28;66318;-28
2022/07/31 04:14:47;;;;;;;3.83;3.63;;;;;;;33.49;61.12;100471.00;5017962;28;69696;-30
2022/07/31 04:17:20;;;;;;;4.10;3.70;;;;;;;33.51;61.17;100471.56;5018439;28;66225;-29
2022/07/31 04:19:51;;;;;;;4.15;3.88;;;;;;;33.53;61.39;100472.19;5017423;28;70253;-29
2022/07/31 04:22:22;;;;;;;4.47;3.95;;;;;;;33.55;61.25;100464.59;5023082;28;66244;-29
2022/07/31 04:24:55;;;;;;;5.63;4.00;;;;;;;33.56;61.44;100458.09;5023894;28;69413;-29
2022/07/31 04:27:47;;;;;;;4.13;3.80;;;;;;;33.61;60.94;100455.44;4958461;28;65746;-29
2022/07/31 04:30:19;;;;;;;4.00;3.70;;;;;;;33.63;60.73;100447.88;5024938;28;69473;-30
2022/07/31 04:32:51;;;;;;;3.65;3.42;;;;;;;33.63;60.70;100453.31;5024139;28;65804;-29
2022/07/31 04:35:24;;;;;;;4.20;4.00;;;;;;;33.66;60.65;100452.81;4953121;28;70334;-28
2022/07/31 04:37:56;;;;;;;3.80;3.50;;;;;;;33.59;60.77;100435.84;5021707;28;66410;-31
2022/07/31 04:40:29;;;;;;;4.45;3.17;;;;;;;33.68;60.38;100428.88;5005147;28;69173;-28
2022/07/31 04:43:01;;;;;;;4.18;3.85;;;;;;;33.70;60.52;100432.19;5021875;28;66572;-29
2022/07/31 04:45:32;;;;;;;;;;;;;;;33.41;61.10;100438.81;5038806;28;69946;-29
2022/07/31 04:48:04;;;;;;;4.05;3.80;;;;;;;33.71;60.22;100433.84;5039416;28;66497;-29
2022/07/31 04:50:37;;;;;;;4.22;3.40;;;;;;;33.74;60.13;100419.75;5018456;28;69999;-28
2022/07/31 04:53:08;;;;;;;3.97;3.67;;;;;;;33.74;60.24;100419.75;5042268;28;66169;-28
2022/07/31 04:56:31;;;;;;;4.30;3.88;;;;;;;33.77;60.31;100412.97;5016495;28;69332;-28
2022/07/31 04:58:34;;;;;;;3.60;3.40;;;;;;;33.76;60.31;100406.69;5024678;28;66181;-28
2022/07/31 05:01:06;;;;;;;4.15;3.85;;;;;;;33.77;60.07;100404.81;5013582;28;69208;-30
2022/07/31 05:03:40;;;;;;;3.45;3.25;;;;;;;33.79;59.97;100395.34;5021194;28;65363;-30
2022/07/31 05:06:13;;;;;;;3.50;3.20;;;;;;;33.78;59.82;100390.94;4955057;28;70632;-30
2022/07/31 05:08:44;;;;;;;3.50;3.20;;;;;;;33.83;59.79;100389.38;5018646;28;66444;-28
2022/07/31 05:11:21;;;;;;;3.47;3.25;;;;;;;33.81;59.81;100382.28;5026182;28;70189;-29
2022/07/31 05:13:56;;;;;;;3.60;3.30;;;;;;;33.17;59.58;100281.31;5020464;28;66289;-30
2022/07/31 05:16:29;;;;;;;7.05;3.25;;;;;;;33.87;59.75;100383.16;5020024;28;70204;-30
2022/07/31 05:19:02;;;;;;;3.58;3.38;;;;;;;33.88;59.54;100370.38;5003652;28;67120;-29
2022/07/31 05:21:59;;;;;;;4.75;4.13;;;;;;;33.87;59.72;100366.03;4968676;28;70343;-29
2022/07/31 05:24:57;;;;;;;4.40;3.15;;;;;;;33.70;59.60;100333.44;4972838;28;65391;-29
2022/07/31 05:27:29;;;;;;;3.55;3.33;;;;;;;33.90;59.62;100360.06;5024660;28;69624;-29
2022/07/31 05:30:08;;;;;;;4.60;3.10;;;;;;;33.90;59.44;100354.63;5016046;28;66764;-29
2022/07/31 05:32:40;;;;;;;3.22;2.90;;;;;;;33.93;59.45;100348.69;5042143;28;69596;-29
2022/07/31 05:35:11;;;;;;;3.20;3.00;;;;;;;33.92;59.27;100341.59;5017763;28;66214;-29
2022/07/31 05:37:42;;;;;;;;;;;;;;;33.64;59.99;100334.47;5029463;28;69227;-28
2022/07/31 05:40:15;;;;;;;3.03;2.83;;;;;;;33.93;59.22;100335.06;5017692;28;67010;-29
2022/07/31 05:43:24;;;;;;;4.53;3.00;;;;;;;33.94;59.18;100344.91;4956395;28;69935;-28
2022/07/31 05:46:07;;;;;;;3.10;2.90;;;;;;;33.95;59.25;100341.09;5038832;28;65348;-29
2022/07/31 05:48:39;;;;;;;3.47;3.13;;;;;;;34.01;59.08;100334.63;5023355;28;70304;-30
2022/07/31 05:51:13;;;;;;;5.82;2.67;;;;;;;34.05;58.82;100335.00;4956188;28;66351;-29
2022/07/31 05:53:49;;;;;;;2.90;2.65;;;;;;;33.99;59.12;100326.75;5034936;28;70519;-29
2022/07/31 05:56:59;;;;;;;5.15;2.90;;;;;;;34.06;59.47;100321.13;5032423;28;66750;-30
2022/07/31 05:59:50;;;;;;;3.33;2.50;;;;;;;34.04;59.37;100320.50;5023745;28;69341;-29
2022/07/31 06:02:22;;;;;;;2.63;2.42;;;;;;;34.10;59.22;100311.38;5022367;28;66078;-29
2022/07/31 06:05:19;;;;;;;4.32;2.72;;;;;;;34.14;58.76;100317.94;4977357;28;69552;-29
2022/07/31 06:07:50;;;;;;;2.80;2.58;;;;;;;34.17;58.83;100311.97;5036356;28;66143;-29
2022/07/31 06:10:23;;;;;;;4.32;2.60;;;;;;;34.21;58.84;100301.41;5024044;28;69270;-28
2022/07/31 06:12:55;;;;;;;2.92;2.72;;;;;;;34.24;58.58;100300.88;5021210;28;65700;-29
2022/07/31 06:15:27;;;;;;;2.55;2.35;;;;;;;34.22;58.56;100287.53;5017148;28;69246;-30
2022/07/31 06:18:05;;;;;;;2.88;2.67;;;;;;;34.28;58.26;100296.56;5017314;28;66412;-28
2022/07/31 06:20:36;;;;;;;2.63;2.42;;;;;;;34.26;58.28;100287.84;4956293;28;70021;-29
2022/07/31 06:23:08;;;;;;;3.08;2.78;;;;;;;34.33;58.37;100282.19;5020030;28;65278;-29
2022/07/31 06:25:57;;;;;;;2.58;2.38;;;;;;;34.38;58.00;100265.88;5035754;28;69763;-29
2022/07/31 06:28:29;;;;;;;2.35;2.25;;;;;;;34.31;58.08;100246.25;4956346;28;66548;-30
2022/07/31 06:31:21;;;;;;;2.67;2.47;;;;;;;34.36;58.42;100254.44;5040956;28;70290;-29
2022/07/31 06:33:56;;;;;;;2.55;2.40;;;;;;;34.42;58.37;100261.59;5035453;28;66225;-30
2022/07/31 06:36:36;;;;;;;3.75;2.30;;;;;;;34.48;58.32;100253.19;5036761;28;70843;-30
2022/07/31 06:39:11;;;;;;;2.45;2.17;;;;;;;34.50;57.81;100242.03;5012559;28;66380;-28
2022/07/31 06:42:21;;;;;;;3.88;2.45;;;;;;;34.51;57.43;100231.97;4984510;28;69000;-28
2022/07/31 06:45:16;;;;;;;2.70;2.50;;;;;;;34.52;57.74;100231.72;4958859;28;66605;-30
2022/07/31 06:48:26;;;;;;;2.50;2.30;;;;;;;34.57;57.58;100223.59;4954153;28;70062;-30
2022/07/31 06:51:05;;;;;;;2.45;2.25;;;;;;;34.59;57.90;100221.44;5021885;28;66276;-29
2022/07/31 06:53:56;;;;;;;2.80;2.60;;;;;;;34.59;57.92;100204.28;4954613;28;69958;-30
2022/07/31 06:56:29;;;;;;;3.30;2.60;;;;;;;34.62;57.89;100204.56;5020451;28;65664;-29
2022/07/31 06:59:01;;;;;;;4.90;2.78;;;;;;;34.63;57.31;100200.78;5027320;28;70746;-28
2022/07/31 07:01:33;;;;;;;2.88;2.22;;;;;;;34.68;57.12;100197.25;5021828;28;65401;-29
2022/07/31 07:04:05;;;;;;;2.50;2.30;;;;;;;34.51;57.39;100159.25;4951313;28;69896;-29
2022/07/31 07:06:36;;;;;;;4.63;2.55;;;;;;;34.69;57.21;100194.28;5020492;28;66367;-29
2022/07/31 07:09:08;;;;;;;2.60;2.40;;;;;;;34.69;57.34;100199.72;5023615;28;70358;-29
2022/07/31 07:11:39;;;;;;;5.53;2.50;;;;;;;34.76;57.41;100204.13;5035053;28;65757;-29
2022/07/31 07:14:11;;;;;;;2.65;2.45;;;;;;;34.72;57.50;100184.75;4948809;28;70341;-30
2022/07/31 07:16:43;;;;;;;2.55;2.35;;;;;;;34.81;57.32;100195.97;4950458;28;65855;-30
2022/07/31 07:19:14;;;;;;;2.90;2.70;;;;;;;34.84;57.41;100200.91;5018329;28;70152;-29
2022/07/31 07:21:46;;;;;;;2.47;2.28;;;;;;;34.85;56.75;100205.25;5021418;28;66461;-29
2022/07/31 07:24:17;;;;;;;2.55;2.35;;;;;;;34.88;57.16;100207.44;5038457;28;69913;-29
2022/07/31 07:26:59;;;;;;;2.78;2.58;;;;;;;34.91;56.52;100206.94;5017329;28;65817;-30
2022/07/31 07:29:31;;;;;;;3.95;2.40;;;;;;;34.93;56.48;100200.13;5022756;28;70452;-29
2022/07/31 07:32:03;;;;;;;3.58;1.98;;;;;;;34.95;56.55;100194.41;4951418;28;66109;-29
2022/07/31 07:34:35;;;;;;;2.10;2.00;;;;;;;34.94;56.84;100170.97;4955318;28;70416;-29
2022/07/31 07:37:07;;;;;;;4.80;2.47;;;;;;;34.98;56.57;100177.53;5001981;28;66359;-29
2022/07/31 07:39:38;;;;;;;2.60;2.38;;;;;;;34.87;56.23;100154.84;5020243;28;69851;-29
2022/07/31 07:42:10;;;;;;;2.88;2.00;;;;;;;35.00;56.70;100156.28;5020355;28;66368;-30
2022/07/31 07:44:42;;;;;;;3.25;2.70;;;;;;;34.94;56.21;100141.00;5014826;28;69933;-30
2022/07/31 07:47:13;;;;;;;2.45;2.25;;;;;;;34.95;56.09;100137.19;5024151;28;65106;-29
2022/07/31 07:49:45;;;;;;;2.72;2.53;;;;;;;35.02;56.20;100154.13;5012868;28;69905;-30
2022/07/31 07:52:43;;;;;;;2.47;2.30;;;;;;;35.05;56.48;100152.75;5017388;28;66147;-29
2022/07/31 07:55:37;;;;;;;5.18;1.77;;;;;;;35.02;56.07;100143.22;5010128;28;70486;-29
2022/07/31 07:58:48;;;;;;;2.65;2.45;;;;;;;35.06;56.17;100146.25;4973578;28;65681;-30
2022/07/31 08:01:37;;;;;;;2.38;2.20;;;;;;;35.08;56.29;100158.53;4972866;28;70164;-29
2022/07/31 08:04:18;;;;;;;2.17;2.03;;;;;;;35.08;56.08;100152.28;5007059;28;65575;-29
2022/07/31 08:06:50;;;;;;;2.60;2.40;;;;;;;35.11;56.36;100158.00;4956075;28;70197;-29
2022/07/31 08:09:25;;;;;;;2.22;2.03;;;;;;;35.05;55.77;100136.41;5030616;28;66103;-30
2022/07/31 08:12:14;;;;;;;2.13;1.98;;;;;;;35.14;56.27;100148.47;4957046;28;69585;-31
2022/07/31 08:15:05;;;;;;;2.53;2.33;;;;;;;35.14;55.52;100143.03;4946105;28;65922;-28
2022/07/31 08:17:36;;;;;;;2.28;2.17;;;;;;;35.18;55.93;100146.84;4951718;28;69873;-30
2022/07/31 08:20:07;;;;;;;;;;;;;;;34.90;56.61;100134.44;5013910;28;66203;-29
2022/07/31 08:22:38;;;;;;;2.53;2.28;;;;;;;35.14;55.78;100124.75;4954314;28;70583;-29
2022/07/31 08:25:11;;;;;;;2.03;1.92;;;;;;;35.19;55.92;100131.31;5015895;28;66561;-29
2022/07/31 08:27:48;;;;;;;2.50;2.28;;;;;;;34.84;55.39;100064.66;5020956;28;70249;-31
2022/07/31 08:30:24;;;;;;;2.25;2.05;;;;;;;35.13;55.47;100116.84;4954517;28;65334;-29
2022/07/31 08:33:00;;;;;;;2.55;2.35;;;;;;;35.22;55.93;100130.78;5018012;28;69028;-29
2022/07/31 08:35:44;;;;;;;2.50;2.30;;;;;;;35.25;55.48;100138.44;5020780;28;66197;-29
2022/07/31 08:38:21;;;;;;;3.95;2.75;;;;;;;35.24;55.91;100134.03;5019234;28;69400;-31
2022/07/31 08:41:13;;;;;;;2.50;2.30;;;;;;;35.24;55.63;100136.78;4950411;28;66176;-29
2022/07/31 08:43:45;;;;;;;2.25;2.15;;;;;;;35.22;55.39;100138.97;5016784;28;70204;-29
2022/07/31 08:46:39;;;;;;;2.40;2.20;;;;;;;35.23;55.16;100137.88;5002590;28;65331;-29
2022/07/31 08:49:15;;;;;;;2.28;1.88;;;;;;;35.17;55.39;100138.94;4952632;28;70205;-29
2022/07/31 08:51:49;;;;;;;2.15;2.05;;;;;;;34.88;55.65;100087.56;5021293;28;65314;-30
2022/07/31 08:54:50;;;;;;;4.35;2.45;;;;;;;35.16;55.03;100127.22;4967255;28;69893;-29
2022/07/31 08:57:25;;;;;;;2.55;2.35;;;;;;;35.29;55.72;100147.69;4950994;28;66461;-30
2022/07/31 08:59:57;;;;;;;4.03;2.47;;;;;;;35.30;55.29;100144.72;4950867;28;70066;-29
2022/07/31 09:02:28;;;;;;;;;;;;;;;35.02;55.80;100154.13;5018621;28;66774;-29
2022/07/31 09:05:26;;;;;;;4.05;2.60;;;;;;;35.26;55.54;100150.97;4945610;28;70785;-29
2022/07/31 09:08:14;;;;;;;2.75;2.35;;;;;;;35.28;55.32;100146.06;5013220;28;65468;-30
2022/07/31 09:11:00;;;;;;;2.65;2.50;;;;;;;35.31;55.23;100140.06;5021726;28;70525;-28
2022/07/31 09:13:39;;;;;;;2.92;2.72;;;;;;;35.30;55.20;100132.97;5011918;28;66422;-28
2022/07/31 09:16:45;;;;;;;2.03;1.92;;;;;;;35.25;54.94;100141.97;5022335;28;69989;-29
2022/07/31 09:19:23;;;;;;;2.53;2.33;;;;;;;34.92;55.15;100088.66;5024437;28;65468;-29
2022/07/31 09:22:26;;;;;;;3.38;2.75;;;;;;;35.30;55.63;100171.13;4955075;28;69944;-30
2022/07/31 09:25:14;;;;;;;2.90;2.70;;;;;;;34.88;55.38;100106.63;5037290;28;65971;-29
2022/07/31 09:27:49;;;;;;;3.03;2.50;;;;;;;34.89;55.14;100111.00;4956141;28;69980;-29
2022/07/31 09:30:21;;;;;;;3.05;2.80;;;;;;;35.29;55.35;100170.31;5010352;28;65487;-30
2022/07/31 09:33:18;;;;;;;2.80;2.47;;;;;;;35.18;55.65;100176.81;4955550;28;70251;-29
2022/07/31 09:36:14;;;;;;;3.13;2.85;;;;;;;35.29;55.96;100185.88;4980132;28;65437;-29
2022/07/31 09:38:50;;;;;;;3.38;3.00;;;;;;;35.29;55.80;100185.88;5013892;28;69877;-29
2022/07/31 09:41:34;;;;;;;3.10;2.90;;;;;;;35.28;56.21;100178.78;4957190;28;65547;-29
2022/07/31 09:44:39;;;;;;;4.03;3.22;;;;;;;34.96;55.73;100149.72;5019393;28;69951;-29
2022/07/31 09:47:27;;;;;;;3.67;3.17;;;;;;;35.19;56.05;100213.09;5024037;28;66497;-30
2022/07/31 09:50:04;;;;;;;3.13;2.92;;;;;;;34.93;56.38;100167.41;5035975;28;70583;-29
2022/07/31 09:52:36;;;;;;;3.45;3.25;;;;;;;35.24;56.00;100216.66;5028913;28;65692;-30
2022/07/31 09:55:12;;;;;;;3.47;3.28;;;;;;;34.90;56.38;100167.13;4950196;28;70151;-28
2022/07/31 09:58:05;;;;;;;3.25;3.05;;;;;;;35.14;56.35;100225.63;5026982;28;66216;-30
2022/07/31 10:00:43;;;;;;;3.35;3.10;;;;;;;35.24;56.22;100224.00;5019844;28;69417;-30
2022/07/31 10:03:18;;;;;;;3.72;3.33;;;;;;;34.66;56.80;100137.59;5019139;28;65736;-30
2022/07/31 10:05:50;;;;;;;3.78;3.47;;;;;;;35.22;56.68;100229.75;5022529;28;69915;-29
2022/07/31 10:08:23;;;;;;;3.67;3.38;;;;;;;34.90;56.44;100173.41;5024993;28;66135;-29
2022/07/31 10:11:19;;;;;;;3.83;3.53;;;;;;;34.94;57.22;100190.06;4970777;28;70420;-28
2022/07/31 10:14:18;;;;;;;4.43;4.10;;;;;;;35.19;57.10;100234.91;4952794;28;66264;-29
2022/07/31 10:16:55;;;;;;;4.68;4.38;;;;;;;34.96;57.17;100208.84;4963870;28;69264;-29
2022/07/31 10:19:47;;;;;;;4.70;3.95;;;;;;;34.77;56.72;100194.84;4966821;28;65576;-29
2022/07/31 10:22:43;;;;;;;8.48;4.50;;;;;;;35.12;57.11;100274.13;4950633;28;69723;-29
2022/07/31 10:25:29;;;;;;;4.75;3.95;;;;;;;35.09;56.96;100285.56;5019836;28;66470;-29
2022/07/31 10:28:02;;;;;;;5.07;4.40;;;;;;;35.09;57.45;100282.81;4956312;28;69443;-28
2022/07/31 10:30:37;;;;;;;4.90;4.60;;;;;;;34.97;56.98;100260.38;5044519;28;65370;-29
2022/07/31 10:33:09;;;;;;;4.53;4.22;;;;;;;35.10;57.39;100286.38;5020693;28;70232;-28
2022/07/31 10:36:24;;;;;;;4.50;4.20;;;;;;;35.06;57.15;100291.53;4969378;28;66503;-29
2022/07/31 10:39:38;;;;;;;4.97;4.63;;;;;;;34.70;57.91;100250.38;4957398;28;70293;-29
2022/07/31 10:42:43;;;;;;;6.38;5.18;;;;;;;34.93;57.90;100302.84;5011666;28;66495;-30
2022/07/31 10:45:16;;;;;;;4.65;4.35;;;;;;;35.02;57.48;100301.31;5016606;28;69482;-29
2022/07/31 10:48:11;;;;;;;4.82;4.50;;;;;;;34.80;57.71;100276.06;5020473;28;65839;-29
2022/07/31 10:51:08;;;;;;;7.22;5.40;;;;;;;34.94;57.87;100309.97;5023197;28;69852;-30
2022/07/31 10:54:00;;;;;;;5.40;4.90;;;;;;;34.60;58.02;100250.34;4955393;28;65888;-30
2022/07/31 10:56:51;;;;;;;6.03;4.88;;;;;;;34.94;57.72;100309.97;4958224;28;69978;-29
2022/07/31 10:59:40;;;;;;;5.57;5.07;;;;;;;34.95;58.16;100316.22;5020589;28;65750;-31
2022/07/31 11:02:46;;;;;;;5.20;4.80;;;;;;;34.93;58.19;100314.56;4976072;28;69867;-29
2022/07/31 11:05:30;;;;;;;5.47;5.07;;;;;;;34.91;58.23;100329.56;5022101;28;66140;-29
2022/07/31 11:08:47;;;;;;;5.65;5.15;;;;;;;34.48;58.29;100274.16;4953242;28;69250;-29
2022/07/31 11:11:38;;;;;;;5.20;4.68;;;;;;;34.89;58.21;100350.81;4971972;28;64803;-29
2022/07/31 11:14:37;;;;;;;5.00;4.60;;;;;;;34.43;58.19;100287.72;4952917;28;70174;-29
2022/07/31 11:17:35;;;;;;;5.55;5.00;;;;;;;34.79;58.15;100354.25;4953530;28;65502;-29
2022/07/31 11:20:30;;;;;;;5.25;4.85;;;;;;;34.80;58.47;100368.69;4955063;28;70531;-33
2022/07/31 11:23:13;;;;;;;5.60;4.40;;;;;;;34.82;58.53;100367.34;4949930;28;66428;-30
2022/07/31 11:25:46;;;;;;;4.97;4.45;;;;;;;34.75;58.63;100353.13;4950033;28;70069;-30
2022/07/31 11:28:23;;;;;;;5.95;4.45;;;;;;;34.50;58.37;100310.13;4955346;28;67302;-30
2022/07/31 11:31:04;;;;;;;4.57;4.18;;;;;;;34.74;58.83;100353.38;4955211;28;70281;-30
2022/07/31 11:33:42;;;;;;;4.43;4.03;;;;;;;34.80;58.56;100385.03;4950150;28;66134;-28
2022/07/31 11:36:16;;;;;;;4.85;4.40;;;;;;;34.36;58.76;100308.91;4954221;28;70412;-29
2022/07/31 11:39:00;;;;;;;4.70;4.38;;;;;;;34.56;58.63;100360.88;4952968;28;64641;-29
2022/07/31 11:41:34;;;;;;;4.53;4.22;;;;;;;34.70;58.68;100392.03;4946191;28;69461;-29
2022/07/31 11:44:19;;;;;;;4.30;4.00;;;;;;;34.67;58.58;100411.63;4951073;28;66297;-29
2022/07/31 11:46:53;;;;;;;4.88;4.07;;;;;;;34.65;59.05;100413.78;4952582;28;70220;-30
2022/07/31 11:49:25;;;;;;;4.65;4.35;;;;;;;34.61;58.94;100425.47;4950458;28;66374;-30
2022/07/31 11:52:16;;;;;;;4.23;3.93;;;;;;;34.58;58.93;100440.44;4954475;28;70012;-30
2022/07/31 11:55:07;;;;;;;3.95;3.65;;;;;;;33.87;59.33;100333.38;4955721;28;65540;-29
2022/07/31 11:57:41;;;;;;;4.60;4.30;;;;;;;34.51;59.11;100442.47;4955586;28;70200;-30
2022/07/31 12:00:20;;;;;;;;;;;;;;;34.18;59.89;100462.50;4951558;28;65602;-31
2022/07/31 12:02:58;;;;;;;4.03;3.72;;;;;;;34.39;58.68;100466.31;4950524;28;70259;-28
2022/07/31 12:05:30;;;;;;;4.07;3.70;;;;;;;34.43;58.84;100473.72;4956438;28;65434;-29
2022/07/31 12:08:10;;;;;;;5.93;3.92;;;;;;;34.35;58.93;100437.94;4953631;28;69823;-29
2022/07/31 12:10:43;;;;;;;4.18;3.88;;;;;;;34.38;59.27;100418.38;4952579;28;65598;-30
2022/07/31 12:13:19;;;;;;;3.30;3.10;;;;;;;34.21;59.13;100389.34;4955279;28;70371;-29
2022/07/31 12:15:59;;;;;;;3.60;3.22;;;;;;;34.32;59.18;100422.13;4955213;28;65480;-31
2022/07/31 12:18:47;;;;;;;4.15;3.70;;;;;;;33.85;59.15;100360.84;4953582;28;70029;-29
2022/07/31 12:21:20;;;;;;;3.78;3.55;;;;;;;33.88;58.86;100373.94;4954959;28;65892;-29
2022/07/31 12:23:52;;;;;;;3.60;3.30;;;;;;;33.88;59.35;100389.44;4954752;28;70134;-30